createdAt,value
2022-07-28T00:00:29.074Z,19.64
2022-07-28T00:03:07.922Z,19.62
2022-07-28T00:05:36.605Z,19.61
2022-07-28T00:08:05.726Z,19.60
2022-07-28T00:10:34.344Z,19.59
2022-07-28T00:13:03.922Z,19.58
2022-07-28T00:15:35.606Z,19.57
2022-07-28T00:18:04.529Z,19.56
2022-07-28T00:20:33.121Z,19.56
2022-07-28T00:23:01.692Z,19.56
2022-07-28T00:25:30.150Z,19.55
2022-07-28T00:27:58.519Z,19.54
2022-07-28T00:30:27.341Z,19.53
2022-07-28T00:32:56.166Z,19.52
2022-07-28T00:35:31.043Z,19.51
2022-07-28T00:38:01.303Z,19.49
2022-07-28T00:40:48.912Z,19.48
2022-07-28T00:43:17.539Z,19.47
2022-07-28T00:45:46.063Z,19.45
2022-07-28T00:48:14.682Z,19.45
2022-07-28T00:50:44.915Z,19.42
2022-07-28T00:53:13.538Z,19.39
2022-07-28T00:56:05.919Z,19.35
2022-07-28T00:58:31.458Z,19.30
2022-07-28T01:01:00.273Z,19.25
2022-07-28T01:03:30.108Z,19.19
2022-07-28T01:06:40.875Z,19.15
2022-07-28T01:09:47.331Z,19.09
2022-07-28T01:12:38.625Z,19.04
2022-07-28T01:15:28.842Z,18.99
2022-07-28T01:18:09.693Z,18.94
2022-07-28T01:20:50.573Z,18.89
2022-07-28T01:23:33.845Z,18.86
2022-07-28T01:26:32.562Z,18.84
2022-07-28T01:30:01.109Z,18.83
2022-07-28T01:32:43.207Z,18.81
2022-07-28T01:35:23.970Z,18.79
2022-07-28T01:37:57.966Z,18.78
2022-07-28T01:40:32.955Z,18.75
2022-07-28T01:43:08.438Z,18.74
2022-07-28T01:45:41.341Z,18.72
2022-07-28T01:48:11.490Z,18.70
2022-07-28T01:50:42.850Z,18.67
2022-07-28T01:53:13.711Z,18.64
2022-07-28T01:55:44.933Z,18.61
2022-07-28T01:58:15.363Z,18.58
2022-07-28T02:00:45.902Z,18.55
2022-07-28T02:03:16.097Z,18.52
2022-07-28T02:05:46.683Z,18.49
2022-07-28T02:08:19.669Z,18.46
2022-07-28T02:11:10.268Z,18.44
2022-07-28T02:13:40.134Z,18.40
2022-07-28T02:16:12.397Z,18.38
2022-07-28T02:18:43.946Z,18.37
2022-07-28T02:21:15.091Z,18.35
2022-07-28T02:23:47.970Z,18.32
2022-07-28T02:26:20.866Z,18.30
2022-07-28T02:28:54.409Z,18.28
2022-07-28T02:31:40.486Z,18.26
2022-07-28T02:34:13.570Z,18.25
2022-07-28T02:36:48.463Z,18.24
2022-07-28T02:39:29.227Z,18.22
2022-07-28T02:42:14.009Z,18.20
2022-07-28T02:44:47.295Z,18.19
2022-07-28T02:47:22.832Z,18.18
2022-07-28T02:49:52.833Z,18.17
2022-07-28T02:52:25.208Z,18.16
2022-07-28T02:54:55.088Z,18.14
2022-07-28T02:57:26.310Z,18.13
2022-07-28T02:59:56.119Z,18.12
2022-07-28T03:02:25.402Z,18.12
2022-07-28T03:04:57.246Z,18.12
2022-07-28T03:07:30.742Z,18.12
2022-07-28T03:10:00.670Z,18.13
2022-07-28T03:12:29.444Z,18.15
2022-07-28T03:14:58.020Z,18.16
2022-07-28T03:17:26.632Z,18.18
2022-07-28T03:19:55.871Z,18.21
2022-07-28T03:22:24.580Z,18.23
2022-07-28T03:24:56.560Z,18.27
2022-07-28T03:27:29.053Z,18.32
2022-07-28T03:30:16.760Z,18.36
2022-07-28T03:32:59.812Z,18.40
2022-07-28T03:35:29.539Z,18.45
2022-07-28T03:38:11.712Z,18.48
2022-07-28T03:40:42.236Z,18.51
2022-07-28T03:43:19.923Z,18.54
2022-07-28T03:45:48.943Z,18.57
2022-07-28T03:48:18.048Z,18.61
2022-07-28T03:50:46.564Z,18.64
2022-07-28T03:53:26.171Z,18.64
2022-07-28T03:55:55.435Z,18.66
2022-07-28T03:58:28.843Z,18.67
2022-07-28T04:00:58.987Z,18.68
2022-07-28T04:03:43.228Z,18.70
2022-07-28T04:06:13.717Z,18.73
2022-07-28T04:08:42.981Z,18.79
2022-07-28T04:11:11.668Z,18.85
2022-07-28T04:13:40.191Z,18.90
2022-07-28T04:16:08.708Z,18.94
2022-07-28T04:18:37.131Z,19.00
2022-07-28T04:21:05.950Z,19.07
2022-07-28T04:23:34.472Z,19.15
2022-07-28T04:26:03.007Z,19.24
2022-07-28T04:28:31.524Z,19.34
2022-07-28T04:31:00.304Z,19.40
2022-07-28T04:33:30.840Z,19.38
2022-07-28T04:36:01.736Z,19.45
2022-07-28T04:38:30.437Z,19.47
2022-07-28T04:40:59.148Z,19.54
2022-07-28T04:43:27.764Z,19.63
2022-07-28T04:45:56.341Z,19.69
2022-07-28T04:48:25.313Z,19.75
2022-07-28T04:50:53.938Z,19.81
2022-07-28T04:53:23.013Z,19.89
2022-07-28T04:55:54.574Z,19.96
2022-07-28T04:58:24.727Z,20.03
2022-07-28T05:00:54.068Z,20.05
2022-07-28T05:03:22.872Z,20.04
2022-07-28T05:05:54.893Z,20.02
2022-07-28T05:08:25.583Z,20.00
2022-07-28T05:10:56.480Z,20.02
2022-07-28T05:13:30.435Z,19.99
2022-07-28T05:16:03.375Z,19.93
2022-07-28T05:18:32.614Z,19.93
2022-07-28T05:21:01.287Z,19.95
2022-07-28T05:23:30.108Z,20.02
2022-07-28T05:25:58.626Z,20.07
2022-07-28T05:28:27.455Z,20.14
2022-07-28T05:30:56.378Z,20.30
2022-07-28T05:33:29.773Z,20.46
2022-07-28T05:36:00.879Z,20.55
2022-07-28T05:38:30.695Z,20.66
2022-07-28T05:41:00.429Z,20.78
2022-07-28T05:43:29.216Z,20.85
2022-07-28T05:45:57.755Z,20.97
2022-07-28T05:48:26.379Z,21.11
2022-07-28T05:50:55.491Z,21.24
2022-07-28T05:53:24.509Z,21.35
2022-07-28T05:56:00.915Z,21.41
2022-07-28T05:58:31.592Z,21.46
2022-07-28T06:01:04.506Z,21.50
2022-07-28T06:03:39.759Z,21.49
2022-07-28T06:06:14.694Z,21.58
2022-07-28T06:08:48.760Z,21.61
2022-07-28T06:11:21.896Z,21.63
2022-07-28T06:13:53.050Z,21.62
2022-07-28T06:16:23.343Z,21.66
2022-07-28T06:18:52.978Z,21.71
2022-07-28T06:21:24.425Z,21.76
2022-07-28T06:23:53.077Z,21.85
2022-07-28T06:26:23.498Z,21.97
2022-07-28T06:28:52.702Z,22.10
2022-07-28T06:31:21.298Z,22.24
2022-07-28T06:33:50.028Z,22.35
2022-07-28T06:36:18.553Z,22.43
2022-07-28T06:38:47.072Z,22.41
2022-07-28T06:41:16.232Z,22.36
2022-07-28T06:43:44.822Z,22.30
2022-07-28T06:46:18.875Z,22.38
2022-07-28T06:48:47.806Z,22.51
2022-07-28T06:51:19.425Z,22.69
2022-07-28T06:53:48.872Z,22.84
2022-07-28T06:56:21.360Z,22.95
2022-07-28T06:58:51.208Z,23.08
2022-07-28T07:01:19.775Z,23.20
2022-07-28T07:03:48.417Z,23.29
2022-07-28T07:06:17.122Z,23.35
2022-07-28T07:08:45.541Z,23.43
2022-07-28T07:11:14.212Z,23.46
2022-07-28T07:13:42.741Z,23.51
2022-07-28T07:16:11.307Z,23.55
2022-07-28T07:18:39.998Z,23.52
2022-07-28T07:21:09.913Z,23.47
2022-07-28T07:23:38.529Z,23.46
2022-07-28T07:26:07.153Z,23.56
2022-07-28T07:28:36.077Z,23.63
2022-07-28T07:31:05.753Z,23.66
2022-07-28T07:33:34.530Z,23.65
2022-07-28T07:36:03.029Z,23.75
2022-07-28T07:38:31.573Z,23.86
2022-07-28T07:41:00.889Z,23.87
2022-07-28T07:43:29.580Z,23.88
2022-07-28T07:45:58.240Z,23.97
2022-07-28T07:48:27.263Z,24.04
2022-07-28T07:50:55.784Z,24.00
2022-07-28T07:53:24.710Z,24.15
2022-07-28T07:55:53.325Z,24.34
2022-07-28T07:58:21.957Z,24.47
2022-07-28T08:00:50.990Z,24.49
2022-07-28T08:03:22.432Z,24.49
2022-07-28T08:05:55.948Z,24.66
2022-07-28T08:08:25.977Z,24.93
2022-07-28T08:10:54.592Z,25.22
2022-07-28T08:13:24.016Z,25.41
2022-07-28T08:15:52.690Z,25.65
2022-07-28T08:18:21.566Z,25.91
2022-07-28T08:20:50.290Z,25.97
2022-07-28T08:23:22.881Z,25.93
2022-07-28T08:25:55.055Z,25.81
2022-07-28T08:28:23.688Z,25.74
2022-07-28T08:30:52.943Z,25.60
2022-07-28T08:33:22.106Z,25.61
2022-07-28T08:35:51.153Z,25.67
2022-07-28T08:38:20.285Z,25.71
2022-07-28T08:40:51.760Z,25.73
2022-07-28T08:43:40.226Z,25.70
2022-07-28T08:46:09.882Z,25.65
2022-07-28T08:48:40.208Z,25.62
2022-07-28T08:51:11.727Z,25.69
2022-07-28T08:53:41.213Z,25.77
2022-07-28T08:56:15.924Z,25.80
2022-07-28T08:58:46.782Z,25.97
2022-07-28T09:01:16.494Z,26.22
2022-07-28T09:03:45.991Z,26.41
2022-07-28T09:06:14.660Z,26.64
2022-07-28T09:08:43.698Z,26.78
2022-07-28T09:11:12.356Z,26.85
2022-07-28T09:13:41.250Z,26.88
2022-07-28T09:16:13.614Z,26.86
2022-07-28T09:18:42.189Z,26.87
2022-07-28T09:21:15.630Z,26.88
2022-07-28T09:23:46.884Z,26.76
2022-07-28T09:26:19.349Z,26.60
2022-07-28T09:28:59.451Z,26.49
2022-07-28T09:31:30.722Z,26.42
2022-07-28T09:34:01.770Z,26.39
2022-07-28T09:36:41.080Z,26.40
2022-07-28T09:39:09.834Z,26.46
2022-07-28T09:41:58.341Z,26.66
2022-07-28T09:44:31.238Z,26.80
2022-07-28T09:47:00.404Z,26.96
2022-07-28T09:49:44.451Z,27.25
2022-07-28T09:52:13.553Z,27.41
2022-07-28T09:55:03.350Z,27.45
2022-07-28T09:57:36.882Z,27.54
2022-07-28T10:00:14.441Z,27.72
2022-07-28T10:02:50.326Z,27.92
2022-07-28T10:05:19.510Z,27.99
2022-07-28T10:07:51.384Z,27.87
2022-07-28T10:10:23.179Z,27.81
2022-07-28T10:12:51.880Z,27.91
2022-07-28T10:15:50.661Z,28.24
2022-07-28T10:18:19.757Z,28.56
2022-07-28T10:20:51.354Z,28.89
2022-07-28T10:23:21.917Z,29.14
2022-07-28T10:25:52.944Z,29.37
2022-07-28T10:28:23.447Z,29.46
2022-07-28T10:30:57.927Z,29.43
2022-07-28T10:33:32.117Z,29.44
2022-07-28T10:36:03.189Z,29.43
2022-07-28T10:38:36.370Z,29.37
2022-07-28T10:41:09.771Z,29.29
2022-07-28T10:43:42.610Z,29.22
2022-07-28T10:46:16.311Z,29.21
2022-07-28T10:48:45.927Z,29.22
2022-07-28T10:51:15.440Z,29.14
2022-07-28T10:53:54.465Z,29.08
2022-07-28T10:56:35.682Z,29.02
2022-07-28T10:59:46.517Z,29.25
2022-07-28T11:02:50.598Z,29.66
2022-07-28T11:05:43.756Z,29.83
2022-07-28T11:08:20.496Z,29.84
2022-07-28T11:10:51.879Z,29.76
2022-07-28T11:13:41.401Z,29.80
2022-07-28T11:16:16.714Z,29.99
2022-07-28T11:19:40.349Z,30.12
2022-07-28T11:22:15.001Z,30.23
2022-07-28T11:24:59.014Z,30.28
2022-07-28T11:27:42.711Z,30.27
2022-07-28T11:30:42.753Z,30.26
2022-07-28T11:33:11.847Z,30.47
2022-07-28T11:35:40.657Z,30.72
2022-07-28T11:38:14.530Z,30.73
2022-07-28T11:40:48.264Z,30.59
2022-07-28T11:43:36.414Z,30.67
2022-07-28T11:46:11.947Z,30.74
2022-07-28T11:48:45.018Z,30.73
2022-07-28T11:51:16.124Z,30.77
2022-07-28T11:53:55.710Z,30.99
2022-07-28T11:56:37.719Z,31.10
2022-07-28T11:59:08.925Z,31.18
2022-07-28T12:01:38.704Z,31.01
2022-07-28T12:04:16.360Z,31.04
2022-07-28T12:06:51.486Z,31.31
2022-07-28T12:09:25.281Z,31.59
2022-07-28T12:11:56.010Z,31.95
2022-07-28T12:14:26.438Z,32.39
2022-07-28T12:16:56.052Z,32.70
2022-07-28T12:19:32.895Z,32.92
2022-07-28T12:22:01.933Z,32.83
2022-07-28T12:24:45.795Z,32.60
2022-07-28T12:27:16.608Z,32.46
2022-07-28T12:29:56.427Z,32.18
2022-07-28T12:32:32.948Z,32.38
2022-07-28T12:35:03.014Z,32.69
2022-07-28T12:37:31.801Z,32.69
2022-07-28T12:40:02.496Z,32.98
2022-07-28T12:42:32.574Z,33.18
2022-07-28T12:45:07.612Z,33.33
2022-07-28T12:47:36.665Z,33.45
2022-07-28T12:50:16.391Z,33.77
2022-07-28T12:53:03.072Z,33.94
2022-07-28T12:55:32.460Z,34.25
2022-07-28T12:58:01.619Z,34.46
2022-07-28T13:00:49.989Z,34.64
2022-07-28T13:03:34.080Z,34.44
2022-07-28T13:06:11.726Z,34.35
2022-07-28T13:08:46.874Z,34.24
2022-07-28T13:11:42.857Z,34.46
2022-07-28T13:14:05.535Z,34.63
2022-07-28T13:16:34.799Z,34.87
2022-07-28T13:19:05.793Z,35.15
2022-07-28T13:21:56.088Z,35.46
2022-07-28T13:24:29.294Z,35.80
2022-07-28T13:26:59.908Z,35.74
2022-07-28T13:29:28.553Z,35.73
2022-07-28T13:31:58.137Z,35.49
2022-07-28T13:34:26.898Z,35.41
2022-07-28T13:36:57.321Z,35.33
2022-07-28T13:39:25.845Z,35.23
2022-07-28T13:41:58.155Z,35.15
2022-07-28T13:44:28.872Z,34.98
2022-07-28T13:47:00.120Z,35.05
2022-07-28T13:49:33.696Z,34.92
2022-07-28T13:52:03.409Z,35.10
2022-07-28T13:54:32.282Z,35.36
2022-07-28T13:57:11.085Z,35.37
2022-07-28T13:59:40.709Z,35.31
2022-07-28T14:02:13.646Z,35.43
2022-07-28T14:04:45.682Z,35.41
2022-07-28T14:07:14.807Z,35.23
2022-07-28T14:09:51.513Z,34.84
2022-07-28T14:12:20.087Z,34.60
2022-07-28T14:14:49.103Z,34.44
2022-07-28T14:17:43.788Z,34.30
2022-07-28T14:20:13.541Z,34.05
2022-07-28T14:22:46.406Z,33.83
2022-07-28T14:25:20.866Z,33.70
2022-07-28T14:27:52.245Z,33.93
2022-07-28T14:30:23.904Z,34.34
2022-07-28T14:32:53.610Z,34.73
2022-07-28T14:35:22.634Z,35.22
2022-07-28T14:40:41.860Z,35.78
2022-07-28T14:43:10.583Z,35.48
2022-07-28T14:46:00.560Z,34.87
2022-07-28T14:48:28.097Z,34.55
2022-07-28T14:50:57.287Z,34.20
2022-07-28T14:53:27.709Z,33.98
2022-07-28T14:55:57.276Z,33.84
2022-07-28T14:58:26.043Z,33.77
2022-07-28T15:00:56.074Z,33.83
2022-07-28T15:03:27.181Z,34.17
2022-07-28T15:05:55.881Z,34.49
2022-07-28T15:08:25.743Z,34.37
2022-07-28T15:10:58.376Z,34.15
2022-07-28T15:13:27.363Z,34.01
2022-07-28T15:15:57.432Z,33.79
2022-07-28T15:18:26.455Z,33.56
2022-07-28T15:20:56.409Z,33.44
2022-07-28T15:23:25.168Z,33.35
2022-07-28T15:25:53.789Z,33.20
2022-07-28T15:28:22.508Z,33.10
2022-07-28T15:30:52.717Z,33.00
2022-07-28T15:33:21.858Z,32.81
2022-07-28T15:35:59.306Z,32.53
2022-07-28T15:38:29.530Z,32.55
2022-07-28T15:41:00.594Z,32.33
2022-07-28T15:43:35.120Z,32.06
2022-07-28T15:46:09.403Z,31.76
2022-07-28T15:48:41.231Z,31.45
2022-07-28T15:51:10.424Z,31.16
2022-07-28T15:53:41.211Z,30.91
2022-07-28T15:56:09.864Z,30.60
2022-07-28T15:58:38.709Z,30.36
2022-07-28T16:01:07.946Z,30.16
2022-07-28T16:03:38.574Z,30.03
2022-07-28T16:06:07.365Z,29.91
2022-07-28T16:08:35.885Z,29.75
2022-07-28T16:11:05.010Z,29.62
2022-07-28T16:13:37.344Z,29.53
2022-07-28T16:16:09.108Z,29.42
2022-07-28T16:18:42.264Z,29.33
2022-07-28T16:21:11.574Z,29.24
2022-07-28T16:23:40.235Z,29.14
2022-07-28T16:26:09.539Z,29.07
2022-07-28T16:28:38.378Z,28.97
2022-07-28T16:31:08.147Z,28.88
2022-07-28T16:33:36.760Z,28.80
2022-07-28T16:36:06.120Z,28.72
2022-07-28T16:38:35.010Z,28.63
2022-07-28T16:41:03.630Z,28.53
2022-07-28T16:43:33.154Z,28.46
2022-07-28T16:46:02.866Z,28.42
2022-07-28T16:48:31.531Z,28.35
2022-07-28T16:51:00.429Z,28.28
2022-07-28T16:53:29.047Z,28.26
2022-07-28T16:55:57.773Z,28.19
2022-07-28T16:58:26.294Z,28.12
2022-07-28T17:00:55.385Z,28.05
2022-07-28T17:03:24.448Z,28.00
2022-07-28T17:05:53.767Z,27.93
2022-07-28T17:08:22.318Z,27.87
2022-07-28T17:10:51.113Z,27.83
2022-07-28T17:13:21.640Z,27.77
2022-07-28T17:15:50.197Z,27.71
2022-07-28T17:18:18.884Z,27.66
2022-07-28T17:20:47.910Z,27.60
2022-07-28T17:23:16.728Z,27.54
2022-07-28T17:26:08.995Z,27.48
2022-07-28T17:28:34.960Z,27.40
2022-07-28T17:31:03.838Z,27.31
2022-07-28T17:33:32.870Z,27.24
2022-07-28T17:36:01.823Z,27.16
2022-07-28T17:38:33.161Z,27.07
2022-07-28T17:41:04.888Z,27.00
2022-07-28T17:43:33.311Z,26.92
2022-07-28T17:46:02.838Z,26.84
2022-07-28T17:48:38.580Z,26.76
2022-07-28T17:51:07.399Z,26.67
2022-07-28T17:53:38.283Z,26.60
2022-07-28T17:56:08.622Z,26.53
2022-07-28T17:58:39.491Z,26.44
2022-07-28T18:01:12.668Z,26.36
2022-07-28T18:03:56.482Z,26.29
2022-07-28T18:06:32.689Z,26.22
2022-07-28T18:09:08.577Z,26.15
2022-07-28T18:11:57.931Z,26.08
2022-07-28T18:14:28.528Z,26.01
2022-07-28T18:16:58.768Z,25.93
2022-07-28T18:19:28.470Z,25.77
2022-07-28T18:21:57.204Z,25.63
2022-07-28T18:24:26.675Z,25.49
2022-07-28T18:26:57.658Z,25.32
2022-07-28T18:29:37.987Z,25.17
2022-07-28T18:32:09.786Z,25.04
2022-07-28T18:34:40.583Z,24.94
2022-07-28T18:37:09.402Z,24.84
2022-07-28T18:39:38.138Z,24.77
2022-07-28T18:42:06.954Z,24.70
2022-07-28T18:44:35.674Z,24.65
2022-07-28T18:47:04.749Z,24.61
2022-07-28T18:49:37.180Z,24.55
2022-07-28T18:52:07.137Z,24.47
2022-07-28T18:54:35.723Z,24.38
2022-07-28T18:57:04.768Z,24.27
2022-07-28T18:59:33.226Z,24.11
2022-07-28T19:02:02.192Z,24.01
2022-07-28T19:04:31.081Z,23.91
2022-07-28T19:07:00.098Z,23.72
2022-07-28T19:09:28.668Z,23.61
2022-07-28T19:12:06.663Z,23.51
2022-07-28T19:14:35.395Z,23.47
2022-07-28T19:17:05.771Z,23.43
2022-07-28T19:19:36.852Z,23.38
2022-07-28T19:22:07.586Z,23.30
2022-07-28T19:24:37.216Z,23.22
2022-07-28T19:27:07.295Z,23.14
2022-07-28T19:29:36.263Z,23.09
2022-07-28T19:32:06.093Z,23.00
2022-07-28T19:34:36.175Z,22.92
2022-07-28T19:37:04.775Z,22.87
2022-07-28T19:39:34.766Z,22.88
2022-07-28T19:42:09.207Z,22.86
2022-07-28T19:44:38.624Z,22.86
2022-07-28T19:47:07.665Z,22.86
2022-07-28T19:49:39.587Z,22.85
2022-07-28T19:52:08.963Z,22.79
2022-07-28T19:54:37.638Z,22.71
2022-07-28T19:57:12.156Z,22.65
2022-07-28T19:59:41.102Z,22.59
2022-07-28T20:02:09.933Z,22.50
2022-07-28T20:04:39.056Z,22.44
2022-07-28T20:07:08.319Z,22.35
2022-07-28T20:09:36.993Z,22.29
2022-07-28T20:12:07.628Z,22.27
2022-07-28T20:14:36.579Z,22.18
2022-07-28T20:17:05.344Z,22.12
2022-07-28T20:19:34.349Z,22.04
2022-07-28T20:22:03.558Z,21.97
2022-07-28T20:24:32.102Z,21.92
2022-07-28T20:27:01.330Z,21.88
2022-07-28T20:29:30.895Z,21.83
2022-07-28T20:31:59.773Z,21.78
2022-07-28T20:34:28.332Z,21.74
2022-07-28T20:36:56.942Z,21.71
2022-07-28T20:39:43.713Z,21.68
2022-07-28T20:42:14.361Z,21.65
2022-07-28T20:44:43.827Z,21.62
2022-07-28T20:47:15.780Z,21.61
2022-07-28T20:49:44.510Z,21.61
2022-07-28T20:52:13.211Z,21.63
2022-07-28T20:54:41.807Z,21.65
2022-07-28T20:57:11.190Z,21.67
2022-07-28T20:59:39.707Z,21.68
2022-07-28T21:02:08.365Z,21.68
2022-07-28T21:04:36.872Z,21.68
2022-07-28T21:07:05.434Z,21.68
2022-07-28T21:09:35.320Z,21.69
2022-07-28T21:12:04.587Z,21.71
2022-07-28T21:14:33.581Z,21.74
2022-07-28T21:17:02.147Z,21.76
2022-07-28T21:19:30.903Z,21.78
2022-07-28T21:21:59.378Z,21.80
2022-07-28T21:24:28.413Z,21.81
2022-07-28T21:26:56.943Z,21.81
2022-07-28T21:32:04.788Z,21.84
2022-07-28T21:34:37.471Z,21.86
2022-07-28T21:37:07.445Z,21.87
2022-07-28T21:39:36.822Z,21.88
2022-07-28T21:42:08.494Z,21.89
2022-07-28T21:44:37.945Z,21.90
2022-07-28T21:47:06.624Z,21.92
2022-07-28T21:49:35.482Z,21.93
2022-07-28T21:52:04.227Z,21.96
2022-07-28T21:54:32.622Z,21.96
2022-07-28T21:57:01.053Z,21.95
2022-07-28T21:59:29.490Z,21.93
2022-07-28T22:01:57.851Z,21.92
2022-07-28T22:04:26.339Z,21.88
2022-07-28T22:06:54.897Z,21.86
2022-07-28T22:09:23.400Z,21.82
2022-07-28T22:11:51.980Z,21.81
2022-07-28T22:14:20.411Z,21.79
2022-07-28T22:16:49.048Z,21.79
2022-07-28T22:19:17.507Z,21.79
2022-07-28T22:21:45.957Z,21.78
2022-07-28T22:24:17.005Z,21.77
2022-07-28T22:26:45.765Z,21.76
2022-07-28T22:29:14.529Z,21.75
2022-07-28T22:31:44.327Z,21.74
2022-07-28T22:34:13.355Z,21.73
2022-07-28T22:36:42.022Z,21.71
2022-07-28T22:39:10.526Z,21.70
2022-07-28T22:41:39.010Z,21.69
2022-07-28T22:44:08.891Z,21.68
2022-07-28T22:46:37.390Z,21.65
2022-07-28T22:49:05.923Z,21.60
2022-07-28T22:51:34.341Z,21.57
2022-07-28T22:54:02.759Z,21.55
2022-07-28T22:56:34.952Z,21.51
2022-07-28T22:59:07.509Z,21.50
2022-07-28T23:01:36.585Z,21.48
2022-07-28T23:04:07.604Z,21.47
2022-07-28T23:06:36.166Z,21.45
2022-07-28T23:09:05.075Z,21.40
2022-07-28T23:11:33.585Z,21.34
2022-07-28T23:14:02.076Z,21.29
2022-07-28T23:16:30.705Z,21.27
2022-07-28T23:18:59.077Z,21.27
2022-07-28T23:21:27.480Z,21.27
2022-07-28T23:23:56.027Z,21.28
2022-07-28T23:26:24.408Z,21.28
2022-07-28T23:28:52.951Z,21.30
2022-07-28T23:31:21.436Z,21.30
2022-07-28T23:33:55.855Z,21.28
2022-07-28T23:36:27.765Z,21.27
2022-07-28T23:38:58.414Z,21.23
2022-07-28T23:41:27.501Z,21.21
2022-07-28T23:43:56.668Z,21.18
2022-07-28T23:46:25.198Z,21.18
2022-07-28T23:48:53.716Z,21.14
2022-07-28T23:51:41.159Z,21.12
2022-07-28T23:54:11.190Z,21.08
2022-07-28T23:56:43.810Z,21.05
2022-07-28T23:59:14.288Z,21.03
